createdAt,value
2019-01-02T00:02:01.363Z,100208.81
2019-01-02T00:04:49.854Z,100225.64
2019-01-02T00:10:14.526Z,100235.15
2019-01-02T00:12:44.148Z,100230.00
2019-01-02T00:15:15.702Z,100242.87
2019-01-02T00:17:45.380Z,100258.02
2019-01-02T00:20:15.791Z,100270.28
2019-01-02T00:22:45.682Z,100248.90
2019-01-02T00:25:15.378Z,100263.15
2019-01-02T00:30:33.838Z,100288.48
2019-01-02T00:35:54.430Z,100287.49
2019-01-02T00:38:24.070Z,100305.31
2019-01-02T00:40:55.495Z,100310.25
2019-01-02T00:46:00.548Z,100320.25
2019-01-02T00:48:30.239Z,100327.47
2019-01-02T00:51:01.692Z,100338.86
2019-01-02T00:53:31.317Z,100361.04
2019-01-02T00:56:03.056Z,100369.85
2019-01-02T00:58:32.689Z,100367.97
2019-01-02T01:01:04.332Z,100371.72
2019-01-02T01:03:34.005Z,100392.72
2019-01-02T01:06:05.588Z,100388.25
2019-01-02T01:08:35.227Z,100397.47
2019-01-02T01:11:06.853Z,100403.91
2019-01-02T01:13:36.467Z,100399.73
2019-01-02T01:16:07.997Z,100424.81
2019-01-02T01:18:37.710Z,100408.35
2019-01-02T01:21:07.347Z,100429.26
2019-01-02T01:26:25.885Z,100436.25
2019-01-02T01:31:44.352Z,100437.83
2019-01-02T01:34:13.978Z,100451.20
2019-01-02T01:36:43.613Z,100471.23
2019-01-02T01:39:15.226Z,100464.27
2019-01-02T01:41:44.849Z,100478.27
2019-01-02T01:44:14.484Z,100489.57
2019-01-02T01:46:44.257Z,100477.56
2019-01-02T01:49:13.903Z,100506.71
2019-01-02T01:51:45.359Z,100509.08
2019-01-02T01:54:15.031Z,100529.52
2019-01-02T01:56:44.660Z,100512.84
2019-01-02T02:01:56.869Z,100543.69
2019-01-02T02:04:26.524Z,100553.91
2019-01-02T02:06:57.929Z,100566.00
2019-01-02T02:09:27.588Z,100526.03
2019-01-02T02:11:57.245Z,100595.37
2019-01-02T02:17:15.578Z,100574.64
2019-01-02T02:19:45.197Z,100588.92
2019-01-02T02:22:16.625Z,100612.53
2019-01-02T02:24:46.290Z,100568.98
2019-01-02T02:27:17.905Z,100635.94
2019-01-02T02:30:07.483Z,100632.86
2019-01-02T02:32:37.383Z,100629.78
2019-01-02T02:35:07.655Z,100636.63
2019-01-02T02:37:37.302Z,100646.34
2019-01-02T02:40:08.009Z,100630.47
2019-01-02T02:42:37.617Z,100696.23
2019-01-02T02:45:29.530Z,100654.88
2019-01-02T02:47:59.439Z,100691.27
2019-01-02T02:55:55.019Z,100706.44
2019-01-02T02:58:45.214Z,100713.38
2019-01-02T03:04:03.909Z,100739.67
2019-01-02T03:06:55.421Z,100743.53
2019-01-02T03:09:26.027Z,100766.34
2019-01-02T03:11:55.634Z,100765.95
2019-01-02T03:14:25.256Z,100810.29
2019-01-02T03:16:56.762Z,100784.90
2019-01-02T03:19:28.153Z,100778.34
2019-01-02T03:22:00.039Z,100787.77
2019-01-02T03:24:30.010Z,100784.80
2019-01-02T03:26:59.806Z,100822.48
2019-01-02T03:29:29.686Z,100815.92
2019-01-02T03:32:01.841Z,100808.19
2019-01-02T03:34:31.870Z,100810.88
2019-01-02T03:37:01.478Z,100846.36
2019-01-02T03:39:31.162Z,100850.23
2019-01-02T03:42:03.387Z,100846.47
2019-01-02T03:44:33.017Z,100863.91
2019-01-02T03:47:02.673Z,100852.59
2019-01-02T03:49:32.575Z,100863.59
2019-01-02T03:52:02.177Z,100888.27
2019-01-02T03:54:31.860Z,100871.19
2019-01-02T03:57:01.570Z,100888.02
2019-01-02T03:59:31.198Z,100904.38
2019-01-02T04:02:00.889Z,100905.45
2019-01-02T04:04:30.739Z,100908.81
2019-01-02T04:07:00.504Z,100903.27
2019-01-02T04:09:30.174Z,100916.43
2019-01-02T04:11:59.955Z,100940.52
2019-01-02T04:14:29.599Z,100922.27
2019-01-02T04:16:59.257Z,100941.48
2019-01-02T04:19:29.200Z,100947.03
2019-01-02T04:21:58.810Z,100945.13
2019-01-02T04:24:28.478Z,100933.81
2019-01-02T04:26:58.189Z,100947.38
2019-01-02T04:29:27.834Z,100937.74
2019-01-02T04:31:57.525Z,100979.87
2019-01-02T04:34:27.470Z,100936.56
2019-01-02T04:36:57.097Z,100968.27
2019-01-02T04:39:26.785Z,100987.48
2019-01-02T04:41:56.986Z,100883.84
2019-01-02T04:47:15.372Z,101021.66
2019-01-02T04:49:44.997Z,101022.94
2019-01-02T04:52:14.615Z,101023.61
2019-01-02T04:55:03.259Z,101031.62
2019-01-02T04:57:32.882Z,101043.72
2019-01-02T05:00:02.518Z,101037.00
2019-01-02T05:02:32.453Z,101054.14
2019-01-02T05:05:02.081Z,101061.25
2019-01-02T05:07:31.802Z,101067.05
2019-01-02T05:10:01.790Z,101057.34
2019-01-02T05:12:31.398Z,101052.97
2019-01-02T05:15:01.038Z,101065.19
2019-01-02T05:17:30.885Z,101072.25
2019-01-02T05:20:00.515Z,101092.30
2019-01-02T05:22:30.227Z,101110.95
2019-01-02T05:25:00.017Z,101101.16
2019-01-02T05:27:29.651Z,101110.56
2019-01-02T05:29:59.307Z,101107.59
2019-01-02T05:32:29.053Z,101129.26
2019-01-02T05:34:58.862Z,101125.67
2019-01-02T05:37:28.668Z,101151.03
2019-01-02T05:39:58.598Z,101144.48
2019-01-02T05:42:28.231Z,101143.19
2019-01-02T05:44:57.862Z,101153.77
2019-01-02T05:47:27.727Z,101165.75
2019-01-02T05:49:57.355Z,101165.87
2019-01-02T05:52:26.999Z,101181.59
2019-01-02T05:54:56.854Z,101188.42
2019-01-02T05:57:26.483Z,101198.61
2019-01-02T05:59:56.103Z,101206.84
2019-01-02T06:02:25.989Z,101210.47
2019-01-02T06:04:55.612Z,101239.97
2019-01-02T06:07:25.574Z,101220.92
2019-01-02T06:09:55.324Z,101223.77
2019-01-02T06:12:25.039Z,101237.03
2019-01-02T06:14:54.677Z,101239.22
2019-01-02T06:17:24.614Z,101236.40
2019-01-02T06:19:54.262Z,101250.32
2019-01-02T06:22:23.939Z,101256.78
2019-01-02T06:24:54.296Z,101255.13
2019-01-02T06:27:23.975Z,101302.91
2019-01-02T06:29:53.621Z,101286.56
2019-01-02T06:32:23.451Z,101295.19
2019-01-02T06:34:53.077Z,101262.88
2019-01-02T06:37:23.265Z,101311.80
2019-01-02T06:39:53.375Z,101293.26
2019-01-02T06:42:23.102Z,101318.88
2019-01-02T06:44:52.761Z,101334.98
2019-01-02T06:47:22.706Z,101321.84
2019-01-02T06:49:52.352Z,101322.36
2019-01-02T06:52:21.986Z,101357.23
2019-01-02T07:00:01.874Z,101372.05
2019-01-02T07:02:31.502Z,101392.64
2019-01-02T07:05:20.165Z,101378.99
2019-01-02T07:07:49.834Z,101387.61
2019-01-02T07:10:38.579Z,101403.96
2019-01-02T07:13:27.145Z,101394.95
2019-01-02T07:15:56.908Z,101414.27
2019-01-02T07:18:26.543Z,101388.25
2019-01-02T07:20:56.162Z,101428.42
2019-01-02T07:23:26.227Z,101423.78
2019-01-02T07:25:55.890Z,101449.27
2019-01-02T07:28:25.565Z,101450.69
2019-01-02T07:30:55.448Z,101439.22
2019-01-02T07:33:30.920Z,101458.92
2019-01-02T07:36:28.051Z,101459.82
2019-01-02T07:39:37.791Z,101421.33
2019-01-02T07:42:45.451Z,101439.09
2019-01-02T07:45:29.189Z,101461.36
2019-01-02T07:48:26.678Z,101475.52
2019-01-02T07:51:34.197Z,101467.41
2019-01-02T07:54:41.910Z,101477.33
2019-01-02T07:57:49.364Z,101484.27
2019-01-02T08:00:30.362Z,101492.26
2019-01-02T08:03:37.829Z,101496.63
2019-01-02T08:06:46.200Z,101489.30
2019-01-02T08:09:37.424Z,101497.41
2019-01-02T08:12:45.169Z,101505.52
2019-01-02T08:15:53.539Z,101524.45
2019-01-02T08:19:01.250Z,101530.12
2019-01-02T08:22:08.712Z,101542.09
2019-01-02T08:25:04.935Z,101547.62
2019-01-02T08:28:12.391Z,101547.23
2019-01-02T08:31:20.107Z,101548.52
2019-01-02T08:34:27.595Z,101570.41
2019-01-02T08:37:35.286Z,101563.20
2019-01-02T08:40:42.741Z,101564.48
2019-01-02T08:43:50.477Z,101594.09
2019-01-02T08:46:57.937Z,101585.61
2019-01-02T08:50:05.621Z,101588.31
2019-01-02T08:53:13.083Z,101605.56
2019-01-02T08:56:20.668Z,101609.94
2019-01-02T09:02:43.834Z,101600.55
2019-01-02T09:05:51.664Z,101612.27
2019-01-02T09:08:54.924Z,101614.45
2019-01-02T09:12:02.218Z,101625.91
2019-01-02T09:14:43.818Z,101627.20
2019-01-02T09:17:24.638Z,101635.97
2019-01-02T09:20:32.290Z,101640.73
2019-01-02T09:23:39.789Z,101636.09
2019-01-02T09:29:48.554Z,101646.78
2019-01-02T09:32:56.084Z,101647.94
2019-01-02T09:35:50.989Z,101647.56
2019-01-02T09:38:32.730Z,101665.97
2019-01-02T09:41:40.555Z,101668.55
2019-01-02T09:44:48.119Z,101664.30
2019-01-02T09:47:45.347Z,101668.94
2019-01-02T09:50:48.171Z,101662.24
2019-01-02T09:53:36.670Z,101685.94
2019-01-02T09:56:44.366Z,101673.56
2019-01-02T09:59:26.109Z,101681.03
2019-01-02T10:02:33.919Z,101705.23
2019-01-02T10:05:49.724Z,101688.88
2019-01-02T10:08:57.238Z,101686.94
2019-01-02T10:12:04.903Z,101705.22
2019-01-02T10:15:12.896Z,101702.27
2019-01-02T10:18:20.736Z,101713.50
2019-01-02T10:21:02.261Z,101714.67
2019-01-02T10:23:58.537Z,101716.37
2019-01-02T10:27:06.115Z,101731.31
2019-01-02T10:30:13.743Z,101730.03
2019-01-02T10:33:21.236Z,101742.53
2019-01-02T10:36:29.091Z,101734.41
2019-01-02T10:39:36.570Z,101741.11
2019-01-02T10:42:44.119Z,101746.39
2019-01-02T10:45:35.446Z,101736.99
2019-01-02T10:48:16.248Z,101759.03
2019-01-02T10:51:23.754Z,101755.42
2019-01-02T10:54:05.634Z,101752.97
2019-01-02T10:56:46.835Z,101764.30
2019-01-02T10:59:54.753Z,101765.45
2019-01-02T11:03:02.255Z,101762.75
2019-01-02T11:06:09.890Z,101773.19
2019-01-02T11:09:17.432Z,101759.41
2019-01-02T11:12:24.991Z,101779.24
2019-01-02T11:15:32.588Z,101773.45
2019-01-02T11:18:25.806Z,101779.13
2019-01-02T11:21:33.543Z,101778.09
2019-01-02T11:24:41.097Z,101785.17
2019-01-02T11:27:48.981Z,101789.92
2019-01-02T11:30:41.832Z,101788.63
2019-01-02T11:33:22.790Z,101792.87
2019-01-02T11:36:30.232Z,101809.48
2019-01-02T11:39:37.711Z,101810.01
2019-01-02T11:42:25.483Z,101809.63
2019-01-02T11:45:22.255Z,101806.27
2019-01-02T11:48:03.448Z,101810.88
2019-01-02T11:50:33.177Z,101816.92
2019-01-02T11:53:21.880Z,101813.67
2019-01-02T11:55:51.546Z,101815.84
2019-01-02T11:58:21.201Z,101819.05
2019-01-02T12:00:51.040Z,101818.80
2019-01-02T12:03:20.697Z,101819.07
2019-01-02T12:05:50.323Z,101811.88
2019-01-02T12:08:20.334Z,101826.09
2019-01-02T12:13:25.741Z,101840.75
2019-01-02T12:15:55.424Z,101849.00
2019-01-02T12:18:25.169Z,101850.44
2019-01-02T12:20:54.999Z,101861.55
2019-01-02T12:23:24.677Z,101865.94
2019-01-02T12:25:54.294Z,101870.06
2019-01-02T12:28:24.002Z,101807.63
2019-01-02T12:31:12.609Z,101872.63
2019-01-02T12:33:42.347Z,101884.77
2019-01-02T12:36:11.957Z,101893.28
2019-01-02T12:38:41.637Z,101901.67
2019-01-02T12:41:11.431Z,101905.93
2019-01-02T12:43:41.158Z,101910.32
2019-01-02T12:46:10.854Z,101920.12
2019-01-02T12:48:59.488Z,101911.34
2019-01-02T12:51:47.962Z,101924.27
2019-01-02T12:54:17.693Z,101930.33
2019-01-02T12:56:47.314Z,101933.05
2019-01-02T12:59:57.502Z,101933.05
2019-01-02T13:03:04.958Z,101936.39
2019-01-02T13:05:46.342Z,101947.60
2019-01-02T13:08:53.815Z,101960.59
2019-01-02T13:11:47.099Z,101963.53
2019-01-02T13:14:54.566Z,101960.53
2019-01-02T13:18:02.158Z,101976.64
2019-01-02T13:20:57.814Z,101975.03
2019-01-02T13:23:32.922Z,101993.69
2019-01-02T13:26:10.933Z,101990.04
2019-01-02T13:29:19.212Z,102001.09
2019-01-02T13:32:26.664Z,102008.02
2019-01-02T13:35:19.805Z,102001.30
2019-01-02T13:38:27.307Z,102019.69
2019-01-02T13:41:34.925Z,102015.41
2019-01-02T13:44:27.673Z,102014.33
2019-01-02T13:47:35.370Z,102015.72
2019-01-02T13:50:36.010Z,102032.31
2019-01-02T13:53:08.541Z,102039.38
2019-01-02T13:55:38.200Z,102037.15
2019-01-02T13:58:07.835Z,102037.63
2019-01-02T14:00:37.767Z,102041.97
2019-01-02T14:03:07.415Z,102044.41
2019-01-02T14:05:40.464Z,102050.18
2019-01-02T14:08:10.154Z,102055.81
2019-01-02T14:10:39.779Z,102053.71
2019-01-02T14:16:27.323Z,102062.67
2019-01-02T14:18:56.526Z,102069.53
2019-01-02T14:21:37.844Z,102078.64
2019-01-02T14:24:07.041Z,102078.34
2019-01-02T14:26:36.246Z,102090.92
2019-01-02T14:29:05.594Z,102091.25
2019-01-02T14:31:38.691Z,102094.97
2019-01-02T14:34:05.723Z,102095.96
2019-01-02T14:36:35.067Z,102106.88
2019-01-02T14:42:13.280Z,102111.05
2019-01-02T14:44:42.715Z,102118.09
2019-01-02T14:47:11.910Z,102130.43
2019-01-02T14:49:41.363Z,102134.06
2019-01-02T14:52:10.563Z,102128.68
2019-01-02T14:54:39.748Z,102126.63
2019-01-02T14:57:09.102Z,102138.88
2019-01-02T14:59:38.364Z,102141.69
2019-01-02T15:02:07.625Z,102138.15
2019-01-02T15:07:11.656Z,102148.92
2019-01-02T15:09:40.871Z,102147.27
2019-01-02T15:12:10.093Z,102152.58
2019-01-02T15:14:39.371Z,102156.74
2019-01-02T15:17:08.780Z,102151.38
2019-01-02T15:19:37.963Z,102156.07
2019-01-02T15:22:27.272Z,102156.00
2019-01-02T15:24:56.549Z,102157.73
2019-01-02T15:30:14.479Z,102154.26
2019-01-02T15:32:43.672Z,102155.09
2019-01-02T15:35:12.947Z,102143.06
2019-01-02T15:37:42.250Z,102154.33
2019-01-02T15:40:12.089Z,102152.59
2019-01-02T15:42:41.279Z,102153.19
2019-01-02T15:45:10.936Z,102149.56
2019-01-02T15:47:40.398Z,102153.33
2019-01-02T15:50:11.070Z,102166.25
2019-01-02T15:52:40.560Z,102159.14
2019-01-02T15:55:09.972Z,102158.45
2019-01-02T16:00:27.706Z,102162.29
2019-01-02T16:02:57.006Z,102168.03
2019-01-02T16:05:26.266Z,102168.63
2019-01-02T16:07:55.706Z,102177.52
2019-01-02T16:10:24.919Z,102193.19
2019-01-02T16:12:54.138Z,102192.87
2019-01-02T16:15:23.617Z,102181.54
2019-01-02T16:17:52.816Z,102194.59
2019-01-02T16:20:22.007Z,102199.20
2019-01-02T16:23:10.400Z,102200.70
2019-01-02T16:25:39.823Z,102205.84
2019-01-02T16:28:09.042Z,102198.57
2019-01-02T16:30:38.563Z,102208.31
2019-01-02T16:33:07.756Z,102218.42
2019-01-02T16:35:36.967Z,102207.09
2019-01-02T16:38:06.328Z,102201.73
2019-01-02T16:40:35.563Z,102210.97
2019-01-02T16:43:04.791Z,102213.26
2019-01-02T16:45:34.239Z,102218.98
2019-01-02T16:48:03.538Z,102209.34
2019-01-02T16:50:32.796Z,102209.42
2019-01-02T16:53:02.262Z,102200.22
2019-01-02T16:55:31.572Z,102207.70
2019-01-02T16:58:00.864Z,102204.59
2019-01-02T17:00:30.265Z,102197.12
2019-01-02T17:03:00.967Z,102206.86
2019-01-02T17:05:30.173Z,102201.56
2019-01-02T17:07:59.491Z,102203.45
2019-01-02T17:10:28.690Z,102209.71
2019-01-02T17:12:57.959Z,102208.27
2019-01-02T17:15:27.548Z,102214.84
2019-01-02T17:17:56.694Z,102217.41
2019-01-02T17:20:25.905Z,102214.62
2019-01-02T17:22:55.395Z,102217.88
2019-01-02T17:25:24.587Z,102219.32
2019-01-02T17:28:13.136Z,102213.06
2019-01-02T17:30:42.323Z,102214.13
2019-01-02T17:33:11.695Z,102210.11
2019-01-02T17:35:41.244Z,102210.48
2019-01-02T17:38:10.442Z,102208.83
2019-01-02T17:40:39.640Z,102213.22
2019-01-02T17:43:09.158Z,102219.11
2019-01-02T17:45:38.719Z,102209.89
2019-01-02T17:48:07.918Z,102212.99
2019-01-02T17:50:37.353Z,102209.67
2019-01-02T17:53:06.536Z,102209.67
2019-01-02T17:55:35.738Z,102215.50
2019-01-02T17:58:05.559Z,102211.27
2019-01-02T18:00:34.761Z,102218.59
2019-01-02T18:03:03.946Z,102224.27
2019-01-02T18:05:33.456Z,102231.53
2019-01-02T18:08:02.651Z,102233.72
2019-01-02T18:10:31.868Z,102235.31
2019-01-02T18:13:01.272Z,102228.67
2019-01-02T18:15:30.493Z,102227.70
2019-01-02T18:17:59.762Z,102231.33
2019-01-02T18:20:29.572Z,102228.53
2019-01-02T18:25:47.117Z,102234.73
2019-01-02T18:28:16.412Z,102236.33
2019-01-02T18:30:45.610Z,102234.82
2019-01-02T18:33:15.015Z,102235.88
2019-01-02T18:35:44.223Z,102236.79
2019-01-02T18:38:13.435Z,102236.79
2019-01-02T18:40:42.768Z,102240.80
2019-01-02T18:43:11.981Z,102232.34
2019-01-02T18:45:41.255Z,102233.24
2019-01-02T18:48:10.811Z,102235.97
2019-01-02T18:50:40.045Z,102244.05
2019-01-02T18:53:09.231Z,102250.48
2019-01-02T18:55:38.812Z,102239.29
2019-01-02T18:58:08.026Z,102246.25
2019-01-02T19:00:37.212Z,102248.44
2019-01-02T19:03:06.711Z,102244.43
2019-01-02T19:05:35.912Z,102247.75
2019-01-02T19:08:24.342Z,102247.83
2019-01-02T19:10:53.539Z,102254.47
2019-01-02T19:13:22.737Z,102253.25
2019-01-02T19:18:27.402Z,102261.63
2019-01-02T19:20:56.626Z,102278.02
2019-01-02T19:23:25.849Z,102268.34
2019-01-02T19:25:55.296Z,102274.60
2019-01-02T19:28:24.599Z,102276.27
2019-01-02T19:30:53.909Z,102269.47
2019-01-02T19:36:11.454Z,102277.92
2019-01-02T19:38:40.637Z,102278.30
2019-01-02T19:41:09.829Z,102283.97
2019-01-02T19:43:39.445Z,102250.20
2019-01-02T19:46:08.756Z,102285.85
2019-01-02T19:48:37.960Z,102288.80
2019-01-02T19:51:07.656Z,102288.27
2019-01-02T19:53:36.864Z,102295.97
2019-01-02T19:56:06.139Z,102287.73
2019-01-02T19:58:35.504Z,102287.52
2019-01-02T20:01:04.751Z,102293.55
2019-01-02T20:03:34.016Z,102297.94
2019-01-02T20:06:03.651Z,102296.66
2019-01-02T20:08:51.976Z,102301.58
2019-01-02T20:11:21.333Z,102304.62
2019-01-02T20:13:50.528Z,102309.16
2019-01-02T20:16:19.753Z,102314.98
2019-01-02T20:18:49.196Z,102301.23
2019-01-02T20:21:18.438Z,102299.20
2019-01-02T20:24:06.839Z,102303.95
2019-01-02T20:26:36.060Z,102306.15
2019-01-02T20:29:05.237Z,102316.58
2019-01-02T20:31:34.839Z,102318.40
2019-01-02T20:34:04.032Z,102323.54
2019-01-02T20:36:33.251Z,102316.90
2019-01-02T20:39:02.649Z,102320.91
2019-01-02T20:41:50.768Z,102329.52
2019-01-02T20:44:20.081Z,102334.45
2019-01-02T20:49:37.726Z,102339.08
2019-01-02T20:52:25.862Z,102337.20
2019-01-02T20:54:55.475Z,102334.03
2019-01-02T20:57:24.711Z,102340.39
2019-01-02T20:59:53.915Z,102341.30
2019-01-02T21:02:23.270Z,102338.58
2019-01-02T21:04:52.470Z,102343.27
2019-01-02T21:07:21.698Z,102342.52
2019-01-02T21:09:51.483Z,102354.39
2019-01-02T21:12:20.668Z,102357.12
2019-01-02T21:14:49.859Z,102358.72
2019-01-02T21:17:19.185Z,102365.08
2019-01-02T21:19:48.398Z,102364.11
2019-01-02T21:22:17.621Z,102361.09
2019-01-02T21:24:46.983Z,102366.09
2019-01-02T21:30:11.199Z,102376.78
2019-01-02T21:32:40.516Z,102374.67
2019-01-02T21:35:09.699Z,102383.98
2019-01-02T21:37:39.066Z,102384.29
2019-01-02T21:40:09.118Z,102381.94
2019-01-02T21:42:38.349Z,102374.45
2019-01-02T21:45:07.687Z,102376.09
2019-01-02T21:47:37.000Z,102374.95
2019-01-02T21:50:25.581Z,102379.25
2019-01-02T21:52:56.976Z,102373.11
2019-01-02T21:55:26.292Z,102372.33
2019-01-02T21:57:55.524Z,102374.27
2019-01-02T22:00:43.857Z,102370.70
2019-01-02T22:03:13.194Z,102377.85
2019-01-02T22:08:30.790Z,102378.22
2019-01-02T22:11:00.007Z,102375.82
2019-01-02T22:13:29.210Z,102370.64
2019-01-02T22:15:58.672Z,102371.88
2019-01-02T22:18:27.914Z,102378.06
2019-01-02T22:20:57.192Z,102374.48
2019-01-02T22:23:26.799Z,102369.83
2019-01-02T22:25:55.981Z,102380.52
2019-01-02T22:28:25.179Z,102373.83
2019-01-02T22:30:54.679Z,102380.30
2019-01-02T22:33:23.972Z,102389.16
2019-01-02T22:35:53.183Z,102386.48
2019-01-02T22:38:22.506Z,102391.30
2019-01-02T22:40:51.682Z,102389.31
2019-01-02T22:43:20.882Z,102396.30
2019-01-02T22:45:50.376Z,102395.23
2019-01-02T22:48:19.836Z,102391.43
2019-01-02T22:50:49.040Z,102393.13
2019-01-02T22:53:18.482Z,102392.64
2019-01-02T22:55:47.795Z,102399.09
2019-01-02T22:58:16.996Z,102406.09
2019-01-02T23:01:25.675Z,102413.08
2019-01-02T23:04:13.779Z,102417.51
2019-01-02T23:07:02.309Z,102419.20
2019-01-02T23:09:50.444Z,102418.12
2019-01-02T23:12:38.692Z,102421.64
2019-01-02T23:15:26.926Z,102420.23
2019-01-02T23:18:15.263Z,102417.88
2019-01-02T23:21:03.364Z,102428.70
2019-01-02T23:23:51.694Z,102430.94
2019-01-02T23:26:39.809Z,102429.11
2019-01-02T23:29:28.160Z,102441.77
2019-01-02T23:32:17.313Z,102443.99
2019-01-02T23:35:23.372Z,102446.93
2019-01-02T23:38:30.471Z,102446.19
2019-01-02T23:41:18.722Z,102444.53
2019-01-02T23:44:06.851Z,102458.23
2019-01-02T23:46:55.211Z,102462.04
2019-01-02T23:49:43.339Z,102464.94
2019-01-02T23:55:19.979Z,102476.98
2019-01-02T23:58:08.179Z,102474.42
